Terminal Aerodrome Forecast
Issued by NWS Greer, SC

Home | Current Version | Previous Version | Graphics & Text | Print | Product List | Glossary On
Versions: 1 2 3 4 5 6 7 8 9 10 11 12 13 14 15 16 17 18 19 20 21 22 23 24 25 26 27 28 29 30 31 32 33 34 35 36 37 38 39 40 41 42 43 44 45 46 47 48 49 50
000
FTUS42 KGSP 222300
TAFAVL
TAF
KAVL 222334Z 2300/2324 16004KT P6SM VCTS SCT045CB BKN070
     FM230200 00000KT P6SM BKN045
     FM230400 00000KT 6SM BR BKN030
     FM230600 00000KT 4SM BR BKN020
     FM230800 00000KT 2SM BR OVC007
     FM231300 33004KT P6SM BKN021
     FM231700 24004KT P6SM BKN035 PROB30 2318/2324 4SM TSRA
      BKN025CB=

USA.gov is the U.S. government's official web portal to all federal, state and local government web resources and services.